createdAt,value
2019-02-25T00:01:55.301Z,13.80
2019-02-25T00:04:23.967Z,14.13
2019-02-25T00:06:52.650Z,14.15
2019-02-25T00:09:21.307Z,14.07
2019-02-25T00:11:50.079Z,13.20
2019-02-25T00:14:18.826Z,13.40
2019-02-25T00:16:47.520Z,13.30
2019-02-25T00:19:16.277Z,13.30
2019-02-25T00:21:44.995Z,13.60
2019-02-25T00:24:13.658Z,13.40
2019-02-25T00:26:42.342Z,12.53
2019-02-25T00:29:10.991Z,12.60
2019-02-25T00:31:39.641Z,13.13
2019-02-25T00:34:08.364Z,13.35
2019-02-25T00:36:37.114Z,14.15
2019-02-25T00:39:06.625Z,15.13
2019-02-25T00:41:35.478Z,13.68
2019-02-25T00:44:04.243Z,14.18
2019-02-25T00:46:32.908Z,14.05
2019-02-25T00:49:01.678Z,13.28
2019-02-25T00:51:30.511Z,13.70
2019-02-25T00:53:59.411Z,13.80
2019-02-25T00:56:28.084Z,13.88
2019-02-25T00:58:56.753Z,14.45
2019-02-25T01:01:26.626Z,13.72
2019-02-25T01:03:55.311Z,14.47
2019-02-25T01:06:24.020Z,15.03
2019-02-25T01:08:52.700Z,14.53
2019-02-25T01:11:21.377Z,14.63
2019-02-25T01:13:50.105Z,15.00
2019-02-25T01:16:18.820Z,15.05
2019-02-25T01:18:47.460Z,15.18
2019-02-25T01:21:16.702Z,14.45
2019-02-25T01:23:45.350Z,14.33
2019-02-25T01:26:14.046Z,15.08
2019-02-25T01:28:42.703Z,14.18
2019-02-25T01:31:11.382Z,13.65
2019-02-25T01:33:40.346Z,13.15
2019-02-25T01:36:09.040Z,14.68
2019-02-25T01:38:37.725Z,14.33
2019-02-25T01:41:06.466Z,13.55
2019-02-25T01:43:35.140Z,13.80
2019-02-25T01:46:03.822Z,12.18
2019-02-25T01:48:32.563Z,13.68
2019-02-25T01:51:02.257Z,13.98
2019-02-25T01:53:30.937Z,13.55
2019-02-25T01:55:59.609Z,13.55
2019-02-25T01:58:28.351Z,12.78
2019-02-25T02:00:58.051Z,13.95
2019-02-25T02:03:29.562Z,13.98
2019-02-25T02:05:58.423Z,14.28
2019-02-25T02:08:27.095Z,15.20
2019-02-25T02:10:55.797Z,14.30
2019-02-25T02:13:24.599Z,14.47
2019-02-25T02:15:53.477Z,14.65
2019-02-25T02:18:22.189Z,13.78
2019-02-25T02:20:50.885Z,14.43
2019-02-25T02:23:19.619Z,15.75
2019-02-25T02:25:48.285Z,14.90
2019-02-25T02:28:16.979Z,15.00
2019-02-25T02:30:47.410Z,15.63
2019-02-25T02:33:16.167Z,14.90
2019-02-25T02:35:44.849Z,14.95
2019-02-25T02:38:13.500Z,15.15
2019-02-25T02:40:42.194Z,15.05
2019-02-25T02:43:10.890Z,15.00
2019-02-25T02:45:41.723Z,16.93
2019-02-25T02:48:12.251Z,15.23
2019-02-25T02:50:40.963Z,14.80
2019-02-25T02:53:09.646Z,14.87
2019-02-25T02:55:38.413Z,14.13
2019-02-25T02:58:08.077Z,14.20
2019-02-25T03:00:36.828Z,14.07
2019-02-25T03:03:05.524Z,14.00
2019-02-25T03:05:34.294Z,13.60
2019-02-25T03:08:03.156Z,13.78
2019-02-25T03:10:32.073Z,15.05
2019-02-25T03:13:00.781Z,14.00
2019-02-25T03:15:29.523Z,14.20
2019-02-25T03:17:58.237Z,14.33
2019-02-25T03:20:26.913Z,13.28
2019-02-25T03:22:55.789Z,14.85
2019-02-25T03:25:24.590Z,13.30
2019-02-25T03:27:53.331Z,14.50
2019-02-25T03:30:23.205Z,14.05
2019-02-25T03:32:51.951Z,14.03
2019-02-25T03:35:20.628Z,13.78
2019-02-25T03:37:52.913Z,14.33
2019-02-25T03:40:21.917Z,15.35
2019-02-25T03:42:50.668Z,14.30
2019-02-25T03:45:19.579Z,14.90
2019-02-25T03:47:48.339Z,14.38
2019-02-25T03:50:17.088Z,13.60
2019-02-25T03:52:45.843Z,13.90
2019-02-25T03:55:15.417Z,12.78
2019-02-25T03:57:44.151Z,13.73
2019-02-25T04:00:14.272Z,12.98
2019-02-25T04:02:42.970Z,14.28
2019-02-25T04:05:11.638Z,13.35
2019-02-25T04:07:40.345Z,12.80
2019-02-25T04:10:09.642Z,14.20
2019-02-25T04:12:38.355Z,14.40
2019-02-25T04:15:08.358Z,14.25
2019-02-25T04:17:37.140Z,13.68
2019-02-25T04:20:06.229Z,14.75
2019-02-25T04:22:36.075Z,13.50
2019-02-25T04:25:04.940Z,14.38
2019-02-25T04:27:33.607Z,13.40
2019-02-25T04:30:02.338Z,14.35
2019-02-25T04:32:31.074Z,13.55
2019-02-25T04:34:59.875Z,15.10
2019-02-25T04:37:28.619Z,14.18
2019-02-25T04:39:57.363Z,13.28
2019-02-25T04:42:26.005Z,13.78
2019-02-25T04:44:54.687Z,14.83
2019-02-25T04:47:23.477Z,14.23
2019-02-25T04:49:52.228Z,14.60
2019-02-25T04:52:20.955Z,14.60
2019-02-25T04:54:49.686Z,15.68
2019-02-25T04:57:19.503Z,15.25
2019-02-25T04:59:48.232Z,15.48
2019-02-25T05:02:17.000Z,14.53
2019-02-25T05:04:45.688Z,15.13
2019-02-25T05:07:14.470Z,14.13
2019-02-25T05:09:43.172Z,14.43
2019-02-25T05:12:11.896Z,14.63
2019-02-25T05:14:40.609Z,14.03
2019-02-25T05:17:09.354Z,14.25
2019-02-25T05:19:38.002Z,13.90
2019-02-25T05:22:06.679Z,14.15
2019-02-25T05:24:35.313Z,14.18
2019-02-25T05:27:04.110Z,14.28
2019-02-25T05:29:32.815Z,13.80
2019-02-25T05:32:01.449Z,15.20
2019-02-25T05:34:30.134Z,14.15
2019-02-25T05:36:58.788Z,14.20
2019-02-25T05:39:27.464Z,14.33
2019-02-25T05:41:56.169Z,13.60
2019-02-25T05:44:24.813Z,14.28
2019-02-25T05:46:53.580Z,14.13
2019-02-25T05:49:22.345Z,14.40
2019-02-25T05:54:39.993Z,14.60
2019-02-25T05:57:08.729Z,14.60
2019-02-25T05:59:37.419Z,13.30
2019-02-25T06:02:07.117Z,13.07
2019-02-25T06:04:35.868Z,13.45
2019-02-25T06:07:04.621Z,13.30
2019-02-25T06:09:33.385Z,13.13
2019-02-25T06:12:02.206Z,13.53
2019-02-25T06:14:30.879Z,11.90
2019-02-25T06:16:59.585Z,11.95
2019-02-25T06:19:28.241Z,12.30
2019-02-25T06:21:56.976Z,12.67
2019-02-25T06:24:25.714Z,12.75
2019-02-25T06:26:54.373Z,12.28
2019-02-25T06:29:23.175Z,13.40
2019-02-25T06:31:51.855Z,14.15
2019-02-25T06:34:20.580Z,13.80
2019-02-25T06:36:49.258Z,14.18
2019-02-25T06:39:17.963Z,14.23
2019-02-25T06:41:46.669Z,13.87
2019-02-25T06:44:15.335Z,14.30
2019-02-25T06:46:44.044Z,13.98
2019-02-25T06:49:12.880Z,14.98
2019-02-25T06:51:41.608Z,15.05
2019-02-25T06:54:10.313Z,14.18
2019-02-25T06:56:39.006Z,15.13
2019-02-25T06:59:07.995Z,18.35
2019-02-25T07:01:36.722Z,18.80
2019-02-25T07:04:27.523Z,17.82
2019-02-25T07:07:08.443Z,16.70
2019-02-25T07:09:49.979Z,13.98
2019-02-25T07:12:24.019Z,13.20
2019-02-25T07:15:14.803Z,14.68
2019-02-25T07:18:01.595Z,13.55
2019-02-25T07:20:47.890Z,14.23
2019-02-25T07:23:32.646Z,12.37
2019-02-25T07:26:11.019Z,13.72
2019-02-25T07:29:16.881Z,15.30
2019-02-25T07:32:07.523Z,16.23
2019-02-25T07:34:47.524Z,16.62
2019-02-25T07:37:44.497Z,15.10
2019-02-25T07:40:22.317Z,15.72
2019-02-25T07:42:58.523Z,16.00
2019-02-25T07:45:46.391Z,14.83
2019-02-25T07:48:23.337Z,15.68
2019-02-25T07:51:09.683Z,15.70
2019-02-25T07:53:56.320Z,16.30
2019-02-25T07:56:46.974Z,15.53
2019-02-25T07:59:46.967Z,14.15
2019-02-25T08:02:22.817Z,15.25
2019-02-25T08:05:18.266Z,14.33
2019-02-25T08:07:57.965Z,14.93
2019-02-25T08:10:57.624Z,14.20
2019-02-25T08:13:35.359Z,14.83
2019-02-25T08:16:26.357Z,14.45
2019-02-25T08:19:14.052Z,14.80
2019-02-25T08:22:19.942Z,15.25
2019-02-25T08:25:06.423Z,14.70
2019-02-25T08:27:41.478Z,14.77
2019-02-25T08:30:41.139Z,15.65
2019-02-25T08:33:20.213Z,15.35
2019-02-25T08:36:42.209Z,16.57
2019-02-25T08:39:42.917Z,16.07
2019-02-25T08:42:23.525Z,17.92
2019-02-25T08:45:03.789Z,17.20
2019-02-25T08:47:48.227Z,18.37
2019-02-25T08:50:16.936Z,17.23
2019-02-25T08:52:45.963Z,17.90
2019-02-25T08:55:14.906Z,18.27
2019-02-25T08:57:44.135Z,18.10
2019-02-25T09:00:13.469Z,19.02
2019-02-25T09:02:42.575Z,17.35
2019-02-25T09:05:12.998Z,18.98
2019-02-25T09:07:42.892Z,18.77
2019-02-25T09:10:13.457Z,18.42
2019-02-25T09:12:42.714Z,19.92
2019-02-25T09:15:11.935Z,17.60
2019-02-25T09:17:43.998Z,16.80
2019-02-25T09:20:13.420Z,18.70
2019-02-25T09:22:42.366Z,18.87
2019-02-25T09:25:12.574Z,17.40
2019-02-25T09:27:41.715Z,17.73
2019-02-25T09:30:12.383Z,18.23
2019-02-25T09:32:41.553Z,18.17
2019-02-25T09:35:10.716Z,18.23
2019-02-25T09:37:39.872Z,19.25
2019-02-25T09:40:11.425Z,17.60
2019-02-25T09:42:43.554Z,19.42
2019-02-25T09:45:13.345Z,18.85
2019-02-25T09:47:42.569Z,18.27
2019-02-25T09:50:16.089Z,18.57
2019-02-25T09:52:45.218Z,18.75
2019-02-25T09:55:14.370Z,17.80
2019-02-25T09:57:43.177Z,18.07
2019-02-25T10:00:14.500Z,17.02
2019-02-25T10:02:44.602Z,17.27
2019-02-25T10:05:13.530Z,16.67
2019-02-25T10:07:42.268Z,17.65
2019-02-25T10:10:12.589Z,16.55
2019-02-25T10:12:41.423Z,16.97
2019-02-25T10:15:11.036Z,17.48
2019-02-25T10:17:40.138Z,18.10
2019-02-25T10:20:09.050Z,16.93
2019-02-25T10:22:37.945Z,16.52
2019-02-25T10:25:07.641Z,18.12
2019-02-25T10:27:36.380Z,17.43
2019-02-25T10:30:05.736Z,16.50
2019-02-25T10:32:34.574Z,16.52
2019-02-25T10:35:03.467Z,17.10
2019-02-25T10:37:32.306Z,15.93
2019-02-25T10:40:01.099Z,16.65
2019-02-25T10:42:31.486Z,17.32
2019-02-25T10:45:02.545Z,17.55
2019-02-25T10:47:31.151Z,16.07
2019-02-25T10:50:00.807Z,16.00
2019-02-25T10:52:30.556Z,15.85
2019-02-25T10:54:59.350Z,16.82
2019-02-25T10:57:31.443Z,16.07
2019-02-25T11:00:00.347Z,16.50
2019-02-25T11:02:29.150Z,16.70
2019-02-25T11:04:57.861Z,17.40
2019-02-25T11:07:26.673Z,16.75
2019-02-25T11:10:06.605Z,16.48
2019-02-25T11:12:35.270Z,17.15
2019-02-25T11:15:05.303Z,17.37
2019-02-25T11:17:34.813Z,16.80
2019-02-25T11:20:06.336Z,17.27
2019-02-25T11:22:35.179Z,16.12
2019-02-25T11:25:04.209Z,15.75
2019-02-25T11:27:33.151Z,15.83
2019-02-25T11:30:03.353Z,16.53
2019-02-25T11:32:32.449Z,14.65
2019-02-25T11:35:03.963Z,15.60
2019-02-25T11:37:31.971Z,16.57
2019-02-25T11:40:01.953Z,16.05
2019-02-25T11:42:32.892Z,16.52
2019-02-25T11:45:04.234Z,15.88
2019-02-25T11:47:32.131Z,16.27
2019-02-25T11:50:00.783Z,15.08
2019-02-25T11:52:29.479Z,16.95
2019-02-25T11:54:58.328Z,16.55
2019-02-25T11:57:27.028Z,16.75
2019-02-25T11:59:58.842Z,14.93
2019-02-25T12:02:27.830Z,14.75
2019-02-25T12:04:56.551Z,14.53
2019-02-25T12:07:25.264Z,16.15
2019-02-25T12:09:54.029Z,16.23
2019-02-25T12:12:22.797Z,14.80
2019-02-25T12:14:51.591Z,14.07
2019-02-25T12:17:20.369Z,14.28
2019-02-25T12:19:51.129Z,14.47
2019-02-25T12:22:19.928Z,14.47
2019-02-25T12:24:48.662Z,15.43
2019-02-25T12:27:17.508Z,14.73
2019-02-25T12:29:46.327Z,15.20
2019-02-25T12:32:15.021Z,14.63
2019-02-25T12:34:43.815Z,13.83
2019-02-25T12:37:12.484Z,14.80
2019-02-25T12:39:41.215Z,15.28
2019-02-25T12:42:09.924Z,14.65
2019-02-25T12:44:38.580Z,15.45
2019-02-25T12:47:07.275Z,14.78
2019-02-25T12:49:35.939Z,13.80
2019-02-25T12:52:04.694Z,12.95
2019-02-25T12:54:33.404Z,14.98
2019-02-25T12:57:02.134Z,13.62
2019-02-25T12:59:30.904Z,14.30
2019-02-25T13:02:00.967Z,14.30
2019-02-25T13:04:29.764Z,13.98
2019-02-25T13:06:58.535Z,14.98
2019-02-25T13:09:27.236Z,13.45
2019-02-25T13:11:55.959Z,13.32
2019-02-25T13:14:24.768Z,13.40
2019-02-25T13:16:53.500Z,14.00
2019-02-25T13:19:22.260Z,13.83
2019-02-25T13:21:51.270Z,14.00
2019-02-25T13:24:21.847Z,13.85
2019-02-25T13:26:50.637Z,14.30
2019-02-25T13:29:19.410Z,14.40
2019-02-25T13:31:48.383Z,13.50
2019-02-25T13:34:18.614Z,14.23
2019-02-25T13:36:47.422Z,14.90
2019-02-25T13:39:17.295Z,13.32
2019-02-25T13:41:46.265Z,14.15
2019-02-25T13:44:15.219Z,12.50
2019-02-25T13:46:44.010Z,14.05
2019-02-25T13:49:12.862Z,13.32
2019-02-25T13:51:41.646Z,14.33
2019-02-25T13:54:10.407Z,13.45
2019-02-25T13:56:39.528Z,13.10
2019-02-25T13:59:08.785Z,13.85
2019-02-25T14:01:37.633Z,12.95
2019-02-25T14:04:06.479Z,14.50
2019-02-25T14:06:35.346Z,13.70
2019-02-25T14:09:06.529Z,13.75
2019-02-25T14:11:36.922Z,12.25
2019-02-25T14:14:06.639Z,12.47
2019-02-25T14:16:35.496Z,12.80
2019-02-25T14:19:04.830Z,12.30
2019-02-25T14:21:34.477Z,11.35
2019-02-25T14:24:04.212Z,11.22
2019-02-25T14:26:33.007Z,10.80
2019-02-25T14:29:01.737Z,10.43
2019-02-25T14:31:30.579Z,10.95
2019-02-25T14:33:59.329Z,11.03
2019-02-25T14:36:28.342Z,11.25
2019-02-25T14:38:59.436Z,10.75
2019-02-25T14:41:27.671Z,10.65
2019-02-25T14:43:58.339Z,10.78
2019-02-25T14:46:27.174Z,11.43
2019-02-25T14:48:57.015Z,10.72
2019-02-25T14:51:26.105Z,10.88
2019-02-25T14:53:55.073Z,10.68
2019-02-25T14:56:24.033Z,11.83
2019-02-25T14:58:52.962Z,11.12
2019-02-25T15:01:23.345Z,11.45
2019-02-25T15:03:55.523Z,10.95
2019-02-25T15:06:25.921Z,10.45
2019-02-25T15:08:55.190Z,11.05
2019-02-25T15:11:26.936Z,11.45
2019-02-25T15:13:55.742Z,10.75
2019-02-25T15:16:24.536Z,11.20
2019-02-25T15:18:53.316Z,10.75
2019-02-25T15:21:22.200Z,10.58
2019-02-25T15:23:51.118Z,10.70
2019-02-25T15:26:21.603Z,10.72
2019-02-25T15:28:53.679Z,10.65
2019-02-25T15:31:20.959Z,11.33
2019-02-25T15:33:49.861Z,12.33
2019-02-25T15:36:20.480Z,11.33
2019-02-25T15:38:49.134Z,11.48
2019-02-25T15:41:18.020Z,11.73
2019-02-25T15:43:46.931Z,10.80
2019-02-25T15:46:16.698Z,11.50
2019-02-25T15:48:46.271Z,12.07
2019-02-25T15:51:15.479Z,11.85
2019-02-25T15:53:48.644Z,12.25
2019-02-25T15:56:15.993Z,12.50
2019-02-25T15:58:47.042Z,12.28
2019-02-25T16:01:15.316Z,11.95
2019-02-25T16:03:44.038Z,11.75
2019-02-25T16:06:12.833Z,12.25
2019-02-25T16:08:41.539Z,11.95
2019-02-25T16:11:12.028Z,13.03
2019-02-25T16:13:41.139Z,11.75
2019-02-25T16:16:10.554Z,12.53
2019-02-25T16:18:40.456Z,11.60
2019-02-25T16:21:11.166Z,12.18
2019-02-25T16:23:41.364Z,11.60
2019-02-25T16:26:13.587Z,12.40
2019-02-25T16:28:42.414Z,12.15
2019-02-25T16:31:12.379Z,12.53
2019-02-25T16:33:41.924Z,12.15
2019-02-25T16:36:10.673Z,11.75
2019-02-25T16:38:39.503Z,12.30
2019-02-25T16:41:10.146Z,12.03
2019-02-25T16:43:38.803Z,10.75
2019-02-25T16:46:09.164Z,12.07
2019-02-25T16:48:39.053Z,13.15
2019-02-25T16:51:09.913Z,12.53
2019-02-25T16:53:39.032Z,13.78
2019-02-25T16:56:10.156Z,12.47
2019-02-25T16:58:39.402Z,13.15
2019-02-25T17:01:09.996Z,12.70
2019-02-25T17:03:39.731Z,11.80
2019-02-25T17:06:09.784Z,13.85
2019-02-25T17:08:39.696Z,13.78
2019-02-25T17:11:08.472Z,13.15
2019-02-25T17:13:39.826Z,14.00
2019-02-25T17:16:17.915Z,12.93
2019-02-25T17:18:39.105Z,13.72
2019-02-25T17:21:08.155Z,13.80
2019-02-25T17:23:38.613Z,14.35
2019-02-25T17:26:09.671Z,13.58
2019-02-25T17:28:38.291Z,14.03
2019-02-25T17:31:09.032Z,13.40
2019-02-25T17:33:38.705Z,14.18
2019-02-25T17:36:08.064Z,14.00
2019-02-25T17:38:37.965Z,14.13
2019-02-25T17:41:08.307Z,14.60
2019-02-25T17:43:39.140Z,14.47
2019-02-25T17:46:09.236Z,14.70
2019-02-25T17:48:38.445Z,15.03
2019-02-25T17:51:07.416Z,14.63
2019-02-25T17:53:36.203Z,14.25
2019-02-25T17:56:04.994Z,15.78
2019-02-25T17:58:35.761Z,14.65
2019-02-25T18:01:05.753Z,15.48
2019-02-25T18:03:35.135Z,15.63
2019-02-25T18:06:05.272Z,15.15
2019-02-25T18:08:35.444Z,14.35
2019-02-25T18:11:05.097Z,16.42
2019-02-25T18:13:35.224Z,15.30
2019-02-25T18:16:04.315Z,15.85
2019-02-25T18:18:36.546Z,15.03
2019-02-25T18:21:06.382Z,15.70
2019-02-25T18:23:36.385Z,15.93
2019-02-25T18:26:05.503Z,15.30
2019-02-25T18:28:34.855Z,15.28
2019-02-25T18:31:08.893Z,16.07
2019-02-25T18:33:35.195Z,17.35
2019-02-25T18:36:05.069Z,17.02
2019-02-25T18:38:35.022Z,16.20
2019-02-25T18:41:04.655Z,16.35
2019-02-25T18:43:34.344Z,16.48
2019-02-25T18:46:04.906Z,17.50
2019-02-25T18:48:33.648Z,16.45
2019-02-25T18:51:04.537Z,17.65
2019-02-25T18:53:33.579Z,16.15
2019-02-25T18:56:02.435Z,16.27
2019-02-25T18:58:33.651Z,16.93
2019-02-25T19:01:02.435Z,16.35
2019-02-25T19:03:33.118Z,16.45
2019-02-25T19:06:03.608Z,18.10
2019-02-25T19:08:32.145Z,17.17
2019-02-25T19:11:00.981Z,17.02
2019-02-25T19:13:31.619Z,16.77
2019-02-25T19:16:01.526Z,16.87
2019-02-25T19:18:32.220Z,15.65
2019-02-25T19:21:02.073Z,17.60
2019-02-25T19:23:33.099Z,17.20
2019-02-25T19:26:01.863Z,16.95
2019-02-25T19:28:31.597Z,16.57
2019-02-25T19:31:00.488Z,17.15
2019-02-25T19:33:31.229Z,16.97
2019-02-25T19:36:00.582Z,17.40
2019-02-25T19:38:32.075Z,17.92
2019-02-25T19:41:00.576Z,17.23
2019-02-25T19:43:29.451Z,17.57
2019-02-25T19:45:59.443Z,16.93
2019-02-25T19:48:31.376Z,16.87
2019-02-25T19:51:01.378Z,17.02
2019-02-25T19:53:35.823Z,16.75
2019-02-25T19:56:03.978Z,16.60
2019-02-25T19:58:34.197Z,18.15
2019-02-25T20:01:06.116Z,16.97
2019-02-25T20:03:35.187Z,16.97
2019-02-25T20:06:11.225Z,17.55
2019-02-25T20:08:36.954Z,17.48
2019-02-25T20:11:09.254Z,18.60
2019-02-25T20:13:36.062Z,17.67
2019-02-25T20:16:07.789Z,17.67
2019-02-25T20:18:37.583Z,16.87
2019-02-25T20:21:08.136Z,18.32
2019-02-25T20:23:36.989Z,18.37
2019-02-25T20:26:05.853Z,16.62
2019-02-25T20:28:34.606Z,18.52
2019-02-25T20:31:03.339Z,19.20
2019-02-25T20:33:33.084Z,18.23
2019-02-25T20:36:03.173Z,18.85
2019-02-25T20:38:34.556Z,18.52
2019-02-25T20:41:02.701Z,18.55
2019-02-25T20:43:32.513Z,17.92
2019-02-25T20:46:03.484Z,18.12
2019-02-25T20:48:32.238Z,17.80
2019-02-25T20:51:02.138Z,19.00
2019-02-25T20:53:33.530Z,18.37
2019-02-25T20:56:01.999Z,18.00
2019-02-25T20:58:30.933Z,18.55
2019-02-25T21:00:59.743Z,19.77
2019-02-25T21:03:28.651Z,18.95
2019-02-25T21:05:57.702Z,18.42
2019-02-25T21:08:26.616Z,18.32
2019-02-25T21:10:55.538Z,19.70
2019-02-25T21:13:28.434Z,17.82
2019-02-25T21:15:55.714Z,19.27
2019-02-25T21:18:26.310Z,18.35
2019-02-25T21:20:55.006Z,19.67
2019-02-25T21:23:23.738Z,18.10
2019-02-25T21:25:55.410Z,18.30
2019-02-25T21:28:25.079Z,19.27
2019-02-25T21:30:53.524Z,19.32
2019-02-25T21:33:23.725Z,20.88
2019-02-25T21:35:53.568Z,20.43
2019-02-25T21:38:24.350Z,21.73
2019-02-25T21:40:54.799Z,20.45
2019-02-25T21:43:26.118Z,19.87
2019-02-25T21:45:54.772Z,19.77
2019-02-25T21:48:25.649Z,19.85
2019-02-25T21:50:58.069Z,20.57
2019-02-25T21:53:25.067Z,19.25
2019-02-25T21:55:55.525Z,19.12
2019-02-25T21:58:25.440Z,20.15
2019-02-25T22:00:55.063Z,20.85
2019-02-25T22:03:23.779Z,20.32
2019-02-25T22:05:55.402Z,20.45
2019-02-25T22:08:26.479Z,20.25
2019-02-25T22:10:54.526Z,19.27
2019-02-25T22:13:23.387Z,20.30
2019-02-25T22:15:52.262Z,20.25
2019-02-25T22:18:21.009Z,20.30
2019-02-25T22:20:51.469Z,19.80
2019-02-25T22:23:22.211Z,19.48
2019-02-25T22:25:50.692Z,19.32
2019-02-25T22:28:19.597Z,20.25
2019-02-25T22:30:49.788Z,19.67
2019-02-25T22:33:26.812Z,19.23
2019-02-25T22:35:51.218Z,20.17
2019-02-25T22:38:19.437Z,18.65
2019-02-25T22:40:50.999Z,19.55
2019-02-25T22:43:20.835Z,19.45
2019-02-25T22:45:49.556Z,20.88
2019-02-25T22:48:19.124Z,22.25
2019-02-25T22:50:51.291Z,20.40
2019-02-25T22:53:19.053Z,19.17
2019-02-25T22:55:49.935Z,23.38
2019-02-25T22:58:18.224Z,22.65
2019-02-25T23:00:48.961Z,22.50
2019-02-25T23:03:20.410Z,22.00
2019-02-25T23:05:50.476Z,20.48
2019-02-25T23:08:21.026Z,20.30
2019-02-25T23:10:51.519Z,20.77
2019-02-25T23:13:22.465Z,19.42
2019-02-25T23:15:53.564Z,18.32
2019-02-25T23:18:25.136Z,20.60
2019-02-25T23:20:54.844Z,20.25
2019-02-25T23:23:25.439Z,21.12
2019-02-25T23:25:56.541Z,20.97
2019-02-25T23:28:26.124Z,22.25
2019-02-25T23:30:55.453Z,20.95
2019-02-25T23:33:24.793Z,22.25
2019-02-25T23:35:55.505Z,21.85
2019-02-25T23:38:23.826Z,22.80
2019-02-25T23:40:52.571Z,21.42
2019-02-25T23:43:23.580Z,21.82
2019-02-25T23:45:52.389Z,22.73
2019-02-25T23:48:21.066Z,20.57
2019-02-25T23:50:50.353Z,22.30
2019-02-25T23:53:20.174Z,23.10
2019-02-25T23:55:54.291Z,20.27
2019-02-25T23:58:24.112Z,22.32
